sensor_id;sensor_type;location;lat;lon;timestamp;P1;durP1;ratioP1;P2;durP2;ratioP2
78614;SDS011;67937;52.488;20.952;2023-08-06T00:00:25;16.20;;;9.60;;
78614;SDS011;67937;52.488;20.952;2023-08-06T00:03:13;14.80;;;8.80;;
78614;SDS011;67937;52.488;20.952;2023-08-06T00:05:42;13.40;;;10.20;;
78614;SDS011;67937;52.488;20.952;2023-08-06T00:08:10;14.00;;;9.40;;
78614;SDS011;67937;52.488;20.952;2023-08-06T00:10:39;13.30;;;9.00;;
78614;SDS011;67937;52.488;20.952;2023-08-06T00:13:08;13.10;;;8.50;;
78614;SDS011;67937;52.488;20.952;2023-08-06T00:15:36;15.70;;;9.20;;
78614;SDS011;67937;52.488;20.952;2023-08-06T00:18:04;13.30;;;8.20;;
78614;SDS011;67937;52.488;20.952;2023-08-06T00:20:32;12.20;;;8.20;;
78614;SDS011;67937;52.488;20.952;2023-08-06T00:23:00;13.40;;;9.40;;
78614;SDS011;67937;52.488;20.952;2023-08-06T00:25:28;15.70;;;9.30;;
78614;SDS011;67937;52.488;20.952;2023-08-06T00:27:56;13.80;;;8.20;;
78614;SDS011;67937;52.488;20.952;2023-08-06T00:30:25;13.30;;;9.00;;
78614;SDS011;67937;52.488;20.952;2023-08-06T00:32:53;13.90;;;9.70;;
78614;SDS011;67937;52.488;20.952;2023-08-06T00:35:21;15.60;;;9.80;;
78614;SDS011;67937;52.488;20.952;2023-08-06T00:37:49;16.90;;;9.60;;
78614;SDS011;67937;52.488;20.952;2023-08-06T00:40:19;17.00;;;9.60;;
78614;SDS011;67937;52.488;20.952;2023-08-06T00:42:48;12.50;;;8.80;;
78614;SDS011;67937;52.488;20.952;2023-08-06T00:45:17;17.80;;;9.00;;
78614;SDS011;67937;52.488;20.952;2023-08-06T00:47:45;16.90;;;10.60;;
78614;SDS011;67937;52.488;20.952;2023-08-06T00:50:14;16.30;;;10.20;;
78614;SDS011;67937;52.488;20.952;2023-08-06T00:52:42;20.40;;;11.80;;
78614;SDS011;67937;52.488;20.952;2023-08-06T00:55:10;14.50;;;10.90;;
78614;SDS011;67937;52.488;20.952;2023-08-06T00:57:38;17.40;;;9.60;;
78614;SDS011;67937;52.488;20.952;2023-08-06T01:00:07;11.30;;;10.10;;
78614;SDS011;67937;52.488;20.952;2023-08-06T01:02:36;10.30;;;9.10;;
78614;SDS011;67937;52.488;20.952;2023-08-06T01:05:04;11.50;;;8.40;;
78614;SDS011;67937;52.488;20.952;2023-08-06T01:13:09;9.30;;;8.00;;
78614;SDS011;67937;52.488;20.952;2023-08-06T01:15:46;11.40;;;7.80;;
78614;SDS011;67937;52.488;20.952;2023-08-06T01:18:19;8.90;;;6.50;;
78614;SDS011;67937;52.488;20.952;2023-08-06T01:20:47;11.60;;;7.40;;
78614;SDS011;67937;52.488;20.952;2023-08-06T01:23:16;10.20;;;7.90;;
78614;SDS011;67937;52.488;20.952;2023-08-06T01:28:33;7.90;;;6.60;;
78614;SDS011;67937;52.488;20.952;2023-08-06T01:31:33;10.00;;;6.50;;
78614;SDS011;67937;52.488;20.952;2023-08-06T01:34:05;8.20;;;5.70;;
78614;SDS011;67937;52.488;20.952;2023-08-06T01:36:37;11.20;;;6.70;;
78614;SDS011;67937;52.488;20.952;2023-08-06T01:39:06;8.10;;;6.30;;
78614;SDS011;67937;52.488;20.952;2023-08-06T01:41:34;6.80;;;5.90;;
78614;SDS011;67937;52.488;20.952;2023-08-06T01:44:03;8.70;;;6.30;;
78614;SDS011;67937;52.488;20.952;2023-08-06T01:46:31;9.00;;;6.10;;
78614;SDS011;67937;52.488;20.952;2023-08-06T01:48:59;6.30;;;5.70;;
78614;SDS011;67937;52.488;20.952;2023-08-06T01:51:27;7.40;;;5.50;;
78614;SDS011;67937;52.488;20.952;2023-08-06T01:53:55;7.40;;;5.40;;
78614;SDS011;67937;52.488;20.952;2023-08-06T01:56:24;6.70;;;5.40;;
78614;SDS011;67937;52.488;20.952;2023-08-06T01:58:52;7.30;;;6.00;;
78614;SDS011;67937;52.488;20.952;2023-08-06T02:01:20;6.70;;;5.90;;
78614;SDS011;67937;52.488;20.952;2023-08-06T02:03:48;6.60;;;4.70;;
78614;SDS011;67937;52.488;20.952;2023-08-06T02:06:16;6.90;;;5.20;;
78614;SDS011;67937;52.488;20.952;2023-08-06T02:08:44;7.30;;;5.50;;
78614;SDS011;67937;52.488;20.952;2023-08-06T02:11:12;7.10;;;5.40;;
78614;SDS011;67937;52.488;20.952;2023-08-06T02:13:40;6.50;;;4.90;;
78614;SDS011;67937;52.488;20.952;2023-08-06T02:16:08;6.10;;;5.50;;
78614;SDS011;67937;52.488;20.952;2023-08-06T02:18:36;6.40;;;5.00;;
78614;SDS011;67937;52.488;20.952;2023-08-06T02:21:04;6.10;;;5.10;;
78614;SDS011;67937;52.488;20.952;2023-08-06T02:23:32;5.00;;;4.40;;
78614;SDS011;67937;52.488;20.952;2023-08-06T02:26:03;7.00;;;5.20;;
78614;SDS011;67937;52.488;20.952;2023-08-06T02:28:32;7.40;;;5.40;;
78614;SDS011;67937;52.488;20.952;2023-08-06T02:31:00;6.70;;;5.20;;
78614;SDS011;67937;52.488;20.952;2023-08-06T02:33:28;6.20;;;4.80;;
78614;SDS011;67937;52.488;20.952;2023-08-06T02:36:02;5.70;;;4.80;;
78614;SDS011;67937;52.488;20.952;2023-08-06T02:38:32;5.70;;;5.00;;
78614;SDS011;67937;52.488;20.952;2023-08-06T02:41:03;9.20;;;6.80;;
78614;SDS011;67937;52.488;20.952;2023-08-06T02:43:32;6.30;;;5.50;;
78614;SDS011;67937;52.488;20.952;2023-08-06T02:46:00;6.50;;;5.40;;
78614;SDS011;67937;52.488;20.952;2023-08-06T02:48:28;9.60;;;6.50;;
78614;SDS011;67937;52.488;20.952;2023-08-06T02:50:57;7.30;;;6.00;;
78614;SDS011;67937;52.488;20.952;2023-08-06T02:53:26;8.20;;;6.90;;
78614;SDS011;67937;52.488;20.952;2023-08-06T02:55:55;7.80;;;5.90;;
78614;SDS011;67937;52.488;20.952;2023-08-06T02:58:23;8.30;;;6.70;;
78614;SDS011;67937;52.488;20.952;2023-08-06T03:01:02;9.60;;;6.40;;
78614;SDS011;67937;52.488;20.952;2023-08-06T03:03:34;9.00;;;6.80;;
78614;SDS011;67937;52.488;20.952;2023-08-06T03:06:02;7.40;;;6.20;;
78614;SDS011;67937;52.488;20.952;2023-08-06T03:08:30;7.40;;;6.20;;
78614;SDS011;67937;52.488;20.952;2023-08-06T03:10:58;9.50;;;6.80;;
78614;SDS011;67937;52.488;20.952;2023-08-06T03:13:26;10.30;;;7.40;;
78614;SDS011;67937;52.488;20.952;2023-08-06T03:15:55;11.90;;;8.40;;
78614;SDS011;67937;52.488;20.952;2023-08-06T03:18:24;13.50;;;7.90;;
78614;SDS011;67937;52.488;20.952;2023-08-06T03:20:53;10.40;;;8.00;;
78614;SDS011;67937;52.488;20.952;2023-08-06T03:23:22;9.90;;;8.10;;
78614;SDS011;67937;52.488;20.952;2023-08-06T03:25:50;10.10;;;8.10;;
78614;SDS011;67937;52.488;20.952;2023-08-06T03:28:18;11.50;;;8.40;;
78614;SDS011;67937;52.488;20.952;2023-08-06T03:30:45;13.70;;;9.90;;
78614;SDS011;67937;52.488;20.952;2023-08-06T03:33:13;14.40;;;9.90;;
78614;SDS011;67937;52.488;20.952;2023-08-06T03:35:41;15.80;;;10.00;;
78614;SDS011;67937;52.488;20.952;2023-08-06T03:38:09;14.80;;;10.80;;
78614;SDS011;67937;52.488;20.952;2023-08-06T03:40:37;13.40;;;11.60;;
78614;SDS011;67937;52.488;20.952;2023-08-06T03:43:05;12.80;;;9.80;;
78614;SDS011;67937;52.488;20.952;2023-08-06T03:45:33;13.70;;;10.00;;
78614;SDS011;67937;52.488;20.952;2023-08-06T03:48:01;17.10;;;11.00;;
78614;SDS011;67937;52.488;20.952;2023-08-06T03:50:29;14.30;;;10.70;;
78614;SDS011;67937;52.488;20.952;2023-08-06T03:52:57;13.90;;;11.00;;
78614;SDS011;67937;52.488;20.952;2023-08-06T03:55:25;14.30;;;12.00;;
78614;SDS011;67937;52.488;20.952;2023-08-06T03:57:53;16.60;;;11.40;;
78614;SDS011;67937;52.488;20.952;2023-08-06T04:00:21;15.00;;;11.20;;
78614;SDS011;67937;52.488;20.952;2023-08-06T04:02:49;14.30;;;11.10;;
78614;SDS011;67937;52.488;20.952;2023-08-06T04:05:18;10.40;;;8.70;;
78614;SDS011;67937;52.488;20.952;2023-08-06T04:07:46;16.20;;;10.10;;
78614;SDS011;67937;52.488;20.952;2023-08-06T04:10:14;12.40;;;10.10;;
78614;SDS011;67937;52.488;20.952;2023-08-06T04:12:42;11.80;;;9.10;;
78614;SDS011;67937;52.488;20.952;2023-08-06T04:15:10;12.30;;;10.30;;
78614;SDS011;67937;52.488;20.952;2023-08-06T04:17:38;13.10;;;10.70;;
78614;SDS011;67937;52.488;20.952;2023-08-06T04:20:06;13.50;;;10.80;;
78614;SDS011;67937;52.488;20.952;2023-08-06T04:22:34;11.50;;;10.30;;
78614;SDS011;67937;52.488;20.952;2023-08-06T04:25:02;13.00;;;10.70;;
78614;SDS011;67937;52.488;20.952;2023-08-06T04:27:31;15.90;;;11.30;;
78614;SDS011;67937;52.488;20.952;2023-08-06T04:29:59;15.30;;;11.60;;
78614;SDS011;67937;52.488;20.952;2023-08-06T04:32:27;13.90;;;12.00;;
78614;SDS011;67937;52.488;20.952;2023-08-06T04:34:55;12.70;;;10.60;;
78614;SDS011;67937;52.488;20.952;2023-08-06T04:37:23;14.50;;;10.50;;
78614;SDS011;67937;52.488;20.952;2023-08-06T04:39:51;18.10;;;11.10;;
78614;SDS011;67937;52.488;20.952;2023-08-06T04:42:19;14.60;;;11.60;;
78614;SDS011;67937;52.488;20.952;2023-08-06T04:44:47;18.00;;;12.20;;
78614;SDS011;67937;52.488;20.952;2023-08-06T04:47:15;18.20;;;12.80;;
78614;SDS011;67937;52.488;20.952;2023-08-06T04:49:46;18.60;;;12.50;;
78614;SDS011;67937;52.488;20.952;2023-08-06T04:52:14;16.40;;;12.90;;
78614;SDS011;67937;52.488;20.952;2023-08-06T04:54:43;15.30;;;13.50;;
78614;SDS011;67937;52.488;20.952;2023-08-06T04:57:11;17.20;;;12.00;;
78614;SDS011;67937;52.488;20.952;2023-08-06T04:59:42;14.00;;;11.80;;
78614;SDS011;67937;52.488;20.952;2023-08-06T05:02:10;12.90;;;11.40;;
78614;SDS011;67937;52.488;20.952;2023-08-06T05:04:38;15.70;;;11.50;;
78614;SDS011;67937;52.488;20.952;2023-08-06T05:07:06;13.40;;;11.70;;
78614;SDS011;67937;52.488;20.952;2023-08-06T05:09:34;15.10;;;13.00;;
78614;SDS011;67937;52.488;20.952;2023-08-06T05:12:03;17.70;;;11.30;;
78614;SDS011;67937;52.488;20.952;2023-08-06T05:14:32;15.40;;;12.20;;
78614;SDS011;67937;52.488;20.952;2023-08-06T05:17:04;13.90;;;12.50;;
78614;SDS011;67937;52.488;20.952;2023-08-06T05:19:32;13.20;;;11.50;;
78614;SDS011;67937;52.488;20.952;2023-08-06T05:22:00;15.70;;;12.00;;
78614;SDS011;67937;52.488;20.952;2023-08-06T05:24:28;14.10;;;11.40;;
78614;SDS011;67937;52.488;20.952;2023-08-06T05:26:57;14.90;;;10.70;;
78614;SDS011;67937;52.488;20.952;2023-08-06T05:29:25;14.30;;;11.20;;
78614;SDS011;67937;52.488;20.952;2023-08-06T05:31:53;12.80;;;10.50;;
78614;SDS011;67937;52.488;20.952;2023-08-06T05:34:21;16.50;;;11.20;;
78614;SDS011;67937;52.488;20.952;2023-08-06T05:36:49;12.70;;;10.80;;
78614;SDS011;67937;52.488;20.952;2023-08-06T05:39:19;11.90;;;10.60;;
78614;SDS011;67937;52.488;20.952;2023-08-06T05:41:47;11.60;;;10.20;;
78614;SDS011;67937;52.488;20.952;2023-08-06T05:44:15;12.90;;;10.80;;
78614;SDS011;67937;52.488;20.952;2023-08-06T05:46:42;12.70;;;10.60;;
78614;SDS011;67937;52.488;20.952;2023-08-06T05:49:10;12.00;;;10.30;;
78614;SDS011;67937;52.488;20.952;2023-08-06T05:51:40;11.20;;;10.00;;
78614;SDS011;67937;52.488;20.952;2023-08-06T05:54:08;10.50;;;8.90;;
78614;SDS011;67937;52.488;20.952;2023-08-06T05:56:36;11.10;;;9.90;;
78614;SDS011;67937;52.488;20.952;2023-08-06T05:59:05;12.40;;;10.40;;
78614;SDS011;67937;52.488;20.952;2023-08-06T06:01:33;11.10;;;9.90;;
78614;SDS011;67937;52.488;20.952;2023-08-06T06:04:01;9.20;;;8.40;;
78614;SDS011;67937;52.488;20.952;2023-08-06T06:06:29;10.50;;;9.10;;
78614;SDS011;67937;52.488;20.952;2023-08-06T06:08:58;9.90;;;9.00;;
78614;SDS011;67937;52.488;20.952;2023-08-06T06:11:26;9.50;;;8.60;;
78614;SDS011;67937;52.488;20.952;2023-08-06T06:13:54;10.70;;;9.30;;
78614;SDS011;67937;52.488;20.952;2023-08-06T06:16:22;10.50;;;9.00;;
78614;SDS011;67937;52.488;20.952;2023-08-06T06:18:50;9.70;;;8.60;;
78614;SDS011;67937;52.488;20.952;2023-08-06T06:21:18;11.00;;;9.70;;
78614;SDS011;67937;52.488;20.952;2023-08-06T06:23:46;9.30;;;8.30;;
78614;SDS011;67937;52.488;20.952;2023-08-06T06:26:14;10.70;;;9.10;;
78614;SDS011;67937;52.488;20.952;2023-08-06T06:28:42;9.40;;;8.50;;
78614;SDS011;67937;52.488;20.952;2023-08-06T06:31:10;10.00;;;8.80;;
78614;SDS011;67937;52.488;20.952;2023-08-06T06:33:38;11.10;;;9.40;;
78614;SDS011;67937;52.488;20.952;2023-08-06T06:36:06;9.10;;;8.20;;
78614;SDS011;67937;52.488;20.952;2023-08-06T06:38:36;10.90;;;9.90;;
78614;SDS011;67937;52.488;20.952;2023-08-06T06:41:04;11.70;;;8.70;;
78614;SDS011;67937;52.488;20.952;2023-08-06T06:43:32;9.80;;;8.80;;
78614;SDS011;67937;52.488;20.952;2023-08-06T06:46:01;9.30;;;8.40;;
78614;SDS011;67937;52.488;20.952;2023-08-06T06:48:31;12.20;;;8.00;;
78614;SDS011;67937;52.488;20.952;2023-08-06T06:51:00;10.00;;;7.80;;
78614;SDS011;67937;52.488;20.952;2023-08-06T06:53:29;9.90;;;8.90;;
78614;SDS011;67937;52.488;20.952;2023-08-06T06:56:04;9.70;;;7.60;;
78614;SDS011;67937;52.488;20.952;2023-08-06T06:58:33;9.70;;;8.00;;
78614;SDS011;67937;52.488;20.952;2023-08-06T07:01:01;10.70;;;9.60;;
78614;SDS011;67937;52.488;20.952;2023-08-06T07:03:29;8.70;;;7.90;;
78614;SDS011;67937;52.488;20.952;2023-08-06T07:05:57;10.70;;;9.70;;
78614;SDS011;67937;52.488;20.952;2023-08-06T07:08:26;10.20;;;8.40;;
78614;SDS011;67937;52.488;20.952;2023-08-06T07:11:04;9.30;;;7.70;;
78614;SDS011;67937;52.488;20.952;2023-08-06T07:13:34;9.70;;;8.30;;
78614;SDS011;67937;52.488;20.952;2023-08-06T07:16:03;9.50;;;8.60;;
78614;SDS011;67937;52.488;20.952;2023-08-06T07:18:31;9.20;;;8.30;;
78614;SDS011;67937;52.488;20.952;2023-08-06T07:21:03;11.10;;;9.20;;
78614;SDS011;67937;52.488;20.952;2023-08-06T07:23:31;8.30;;;7.50;;
78614;SDS011;67937;52.488;20.952;2023-08-06T07:25:59;8.40;;;7.60;;
78614;SDS011;67937;52.488;20.952;2023-08-06T07:28:27;8.50;;;7.70;;
78614;SDS011;67937;52.488;20.952;2023-08-06T07:30:55;8.60;;;7.70;;
78614;SDS011;67937;52.488;20.952;2023-08-06T07:33:27;7.50;;;6.80;;
78614;SDS011;67937;52.488;20.952;2023-08-06T07:35:56;10.90;;;8.20;;
78614;SDS011;67937;52.488;20.952;2023-08-06T07:38:25;8.30;;;7.50;;
78614;SDS011;67937;52.488;20.952;2023-08-06T07:40:54;8.30;;;7.50;;
78614;SDS011;67937;52.488;20.952;2023-08-06T07:43:22;10.70;;;7.30;;
78614;SDS011;67937;52.488;20.952;2023-08-06T07:45:59;10.20;;;8.00;;
78614;SDS011;67937;52.488;20.952;2023-08-06T07:48:31;8.00;;;7.30;;
78614;SDS011;67937;52.488;20.952;2023-08-06T07:51:01;11.20;;;7.80;;
78614;SDS011;67937;52.488;20.952;2023-08-06T07:53:29;8.60;;;7.50;;
78614;SDS011;67937;52.488;20.952;2023-08-06T07:55:59;8.40;;;7.60;;
78614;SDS011;67937;52.488;20.952;2023-08-06T07:58:28;8.30;;;7.50;;
78614;SDS011;67937;52.488;20.952;2023-08-06T08:00:58;8.50;;;7.70;;
78614;SDS011;67937;52.488;20.952;2023-08-06T08:03:29;8.90;;;6.50;;
78614;SDS011;67937;52.488;20.952;2023-08-06T08:05:58;11.50;;;6.80;;
78614;SDS011;67937;52.488;20.952;2023-08-06T08:08:26;7.90;;;7.20;;
78614;SDS011;67937;52.488;20.952;2023-08-06T08:10:54;8.50;;;7.80;;
78614;SDS011;67937;52.488;20.952;2023-08-06T08:13:25;8.50;;;7.30;;
78614;SDS011;67937;52.488;20.952;2023-08-06T08:15:57;10.40;;;7.60;;
78614;SDS011;67937;52.488;20.952;2023-08-06T08:18:26;8.10;;;7.30;;
78614;SDS011;67937;52.488;20.952;2023-08-06T08:20:55;8.30;;;7.20;;
78614;SDS011;67937;52.488;20.952;2023-08-06T08:23:23;8.30;;;7.50;;
78614;SDS011;67937;52.488;20.952;2023-08-06T08:25:52;8.20;;;6.60;;
78614;SDS011;67937;52.488;20.952;2023-08-06T08:28:21;7.90;;;7.10;;
78614;SDS011;67937;52.488;20.952;2023-08-06T08:30:49;11.10;;;7.80;;
78614;SDS011;67937;52.488;20.952;2023-08-06T08:33:17;8.80;;;7.40;;
78614;SDS011;67937;52.488;20.952;2023-08-06T08:35:45;8.90;;;7.00;;
78614;SDS011;67937;52.488;20.952;2023-08-06T08:38:14;7.60;;;6.80;;
78614;SDS011;67937;52.488;20.952;2023-08-06T08:40:45;9.30;;;7.60;;
78614;SDS011;67937;52.488;20.952;2023-08-06T08:43:14;8.10;;;7.30;;
78614;SDS011;67937;52.488;20.952;2023-08-06T08:45:43;7.20;;;6.60;;
78614;SDS011;67937;52.488;20.952;2023-08-06T08:48:17;11.90;;;7.00;;
78614;SDS011;67937;52.488;20.952;2023-08-06T08:50:49;8.20;;;6.70;;
78614;SDS011;67937;52.488;20.952;2023-08-06T08:53:18;8.10;;;7.30;;
78614;SDS011;67937;52.488;20.952;2023-08-06T08:55:49;9.30;;;6.80;;
78614;SDS011;67937;52.488;20.952;2023-08-06T08:58:19;6.80;;;6.20;;
78614;SDS011;67937;52.488;20.952;2023-08-06T09:00:47;8.50;;;7.20;;
78614;SDS011;67937;52.488;20.952;2023-08-06T09:03:16;7.50;;;6.90;;
78614;SDS011;67937;52.488;20.952;2023-08-06T09:05:45;6.40;;;5.80;;
78614;SDS011;67937;52.488;20.952;2023-08-06T09:08:20;7.00;;;6.10;;
78614;SDS011;67937;52.488;20.952;2023-08-06T09:10:52;9.20;;;6.40;;
78614;SDS011;67937;52.488;20.952;2023-08-06T09:13:23;6.80;;;6.20;;
78614;SDS011;67937;52.488;20.952;2023-08-06T09:15:52;6.80;;;6.20;;
78614;SDS011;67937;52.488;20.952;2023-08-06T09:18:26;7.40;;;6.50;;
78614;SDS011;67937;52.488;20.952;2023-08-06T09:20:55;8.20;;;6.60;;
78614;SDS011;67937;52.488;20.952;2023-08-06T09:23:28;6.90;;;6.40;;
78614;SDS011;67937;52.488;20.952;2023-08-06T09:25:58;7.90;;;7.00;;
78614;SDS011;67937;52.488;20.952;2023-08-06T09:28:38;6.90;;;6.30;;
78614;SDS011;67937;52.488;20.952;2023-08-06T09:31:09;9.30;;;6.50;;
78614;SDS011;67937;52.488;20.952;2023-08-06T09:33:38;6.70;;;6.10;;
78614;SDS011;67937;52.488;20.952;2023-08-06T09:36:09;7.60;;;6.80;;
78614;SDS011;67937;52.488;20.952;2023-08-06T09:38:39;8.20;;;7.10;;
78614;SDS011;67937;52.488;20.952;2023-08-06T09:41:08;7.60;;;6.80;;
78614;SDS011;67937;52.488;20.952;2023-08-06T09:43:40;7.50;;;6.80;;
78614;SDS011;67937;52.488;20.952;2023-08-06T09:46:13;7.80;;;7.10;;
78614;SDS011;67937;52.488;20.952;2023-08-06T09:48:48;7.10;;;5.90;;
78614;SDS011;67937;52.488;20.952;2023-08-06T09:51:18;9.00;;;7.00;;
78614;SDS011;67937;52.488;20.952;2023-08-06T09:53:46;6.60;;;6.00;;
78614;SDS011;67937;52.488;20.952;2023-08-06T09:56:17;7.00;;;5.80;;
78614;SDS011;67937;52.488;20.952;2023-08-06T09:58:45;8.10;;;6.60;;
78614;SDS011;67937;52.488;20.952;2023-08-06T10:01:17;6.10;;;5.60;;
78614;SDS011;67937;52.488;20.952;2023-08-06T10:03:46;7.20;;;6.10;;
78614;SDS011;67937;52.488;20.952;2023-08-06T10:06:17;6.30;;;5.70;;
78614;SDS011;67937;52.488;20.952;2023-08-06T10:08:48;6.60;;;6.10;;
78614;SDS011;67937;52.488;20.952;2023-08-06T10:11:17;6.20;;;5.80;;
78614;SDS011;67937;52.488;20.952;2023-08-06T10:13:45;6.30;;;5.50;;
78614;SDS011;67937;52.488;20.952;2023-08-06T10:16:15;6.80;;;6.00;;
78614;SDS011;67937;52.488;20.952;2023-08-06T10:18:45;5.90;;;5.50;;
78614;SDS011;67937;52.488;20.952;2023-08-06T10:21:27;6.70;;;6.20;;
78614;SDS011;67937;52.488;20.952;2023-08-06T10:23:57;7.40;;;6.10;;
78614;SDS011;67937;52.488;20.952;2023-08-06T10:26:29;7.50;;;6.30;;
78614;SDS011;67937;52.488;20.952;2023-08-06T10:28:58;8.10;;;5.30;;
78614;SDS011;67937;52.488;20.952;2023-08-06T10:31:58;6.80;;;5.30;;
78614;SDS011;67937;52.488;20.952;2023-08-06T10:35:27;5.60;;;5.10;;
78614;SDS011;67937;52.488;20.952;2023-08-06T10:38:54;5.60;;;5.10;;
78614;SDS011;67937;52.488;20.952;2023-08-06T10:41:31;6.30;;;5.70;;
78614;SDS011;67937;52.488;20.952;2023-08-06T10:47:57;6.30;;;5.60;;
78614;SDS011;67937;52.488;20.952;2023-08-06T10:57:56;6.30;;;5.70;;
78614;SDS011;67937;52.488;20.952;2023-08-06T11:00:40;5.40;;;4.90;;
78614;SDS011;67937;52.488;20.952;2023-08-06T11:03:37;5.80;;;4.80;;
78614;SDS011;67937;52.488;20.952;2023-08-06T11:06:34;6.70;;;5.00;;
78614;SDS011;67937;52.488;20.952;2023-08-06T11:09:21;5.50;;;4.90;;
78614;SDS011;67937;52.488;20.952;2023-08-06T11:11:50;5.70;;;5.20;;
78614;SDS011;67937;52.488;20.952;2023-08-06T11:14:19;6.30;;;5.80;;
78614;SDS011;67937;52.488;20.952;2023-08-06T11:16:47;6.00;;;5.50;;
78614;SDS011;67937;52.488;20.952;2023-08-06T11:19:16;7.40;;;5.60;;
78614;SDS011;67937;52.488;20.952;2023-08-06T11:21:46;5.20;;;4.80;;
78614;SDS011;67937;52.488;20.952;2023-08-06T11:24:14;6.60;;;5.10;;
78614;SDS011;67937;52.488;20.952;2023-08-06T11:26:42;5.30;;;4.70;;
78614;SDS011;67937;52.488;20.952;2023-08-06T11:29:11;5.80;;;5.40;;
78614;SDS011;67937;52.488;20.952;2023-08-06T11:31:39;5.70;;;5.10;;
78614;SDS011;67937;52.488;20.952;2023-08-06T11:34:07;5.90;;;5.20;;
78614;SDS011;67937;52.488;20.952;2023-08-06T11:36:40;6.70;;;6.00;;
78614;SDS011;67937;52.488;20.952;2023-08-06T11:39:09;5.40;;;4.70;;
78614;SDS011;67937;52.488;20.952;2023-08-06T11:41:38;7.20;;;5.20;;
78614;SDS011;67937;52.488;20.952;2023-08-06T11:44:10;5.90;;;5.30;;
78614;SDS011;67937;52.488;20.952;2023-08-06T11:46:54;5.00;;;4.60;;
78614;SDS011;67937;52.488;20.952;2023-08-06T11:52:20;5.70;;;5.20;;
78614;SDS011;67937;52.488;20.952;2023-08-06T11:55:27;5.20;;;4.70;;
78614;SDS011;67937;52.488;20.952;2023-08-06T11:57:57;5.30;;;4.80;;
78614;SDS011;67937;52.488;20.952;2023-08-06T12:00:26;5.50;;;4.40;;
78614;SDS011;67937;52.488;20.952;2023-08-06T12:02:54;4.80;;;4.20;;
78614;SDS011;67937;52.488;20.952;2023-08-06T12:05:28;7.20;;;4.80;;
78614;SDS011;67937;52.488;20.952;2023-08-06T12:07:58;6.50;;;4.30;;
78614;SDS011;67937;52.488;20.952;2023-08-06T12:10:28;9.70;;;5.10;;
78614;SDS011;67937;52.488;20.952;2023-08-06T12:12:59;4.90;;;4.50;;
78614;SDS011;67937;52.488;20.952;2023-08-06T12:15:29;5.10;;;4.60;;
78614;SDS011;67937;52.488;20.952;2023-08-06T12:17:57;5.20;;;4.20;;
78614;SDS011;67937;52.488;20.952;2023-08-06T12:20:25;5.00;;;4.60;;
78614;SDS011;67937;52.488;20.952;2023-08-06T12:22:55;5.60;;;4.30;;
78614;SDS011;67937;52.488;20.952;2023-08-06T12:25:23;5.10;;;4.60;;
78614;SDS011;67937;52.488;20.952;2023-08-06T12:27:51;4.80;;;4.30;;
78614;SDS011;67937;52.488;20.952;2023-08-06T12:30:19;4.70;;;4.40;;
78614;SDS011;67937;52.488;20.952;2023-08-06T12:32:47;6.00;;;5.00;;
78614;SDS011;67937;52.488;20.952;2023-08-06T12:35:18;4.90;;;4.40;;
78614;SDS011;67937;52.488;20.952;2023-08-06T12:37:46;6.40;;;4.40;;
78614;SDS011;67937;52.488;20.952;2023-08-06T12:40:14;4.90;;;4.50;;
78614;SDS011;67937;52.488;20.952;2023-08-06T12:42:42;4.80;;;4.40;;
78614;SDS011;67937;52.488;20.952;2023-08-06T12:45:10;4.90;;;4.50;;
78614;SDS011;67937;52.488;20.952;2023-08-06T12:47:39;7.60;;;4.80;;
78614;SDS011;67937;52.488;20.952;2023-08-06T12:50:07;5.70;;;5.20;;
78614;SDS011;67937;52.488;20.952;2023-08-06T12:52:36;5.50;;;4.80;;
78614;SDS011;67937;52.488;20.952;2023-08-06T12:55:04;5.40;;;5.00;;
78614;SDS011;67937;52.488;20.952;2023-08-06T12:58:06;6.10;;;5.60;;
78614;SDS011;67937;52.488;20.952;2023-08-06T13:00:52;5.30;;;4.50;;
78614;SDS011;67937;52.488;20.952;2023-08-06T13:03:22;5.70;;;5.20;;
78614;SDS011;67937;52.488;20.952;2023-08-06T13:06:18;6.10;;;5.30;;
78614;SDS011;67937;52.488;20.952;2023-08-06T13:09:00;6.30;;;5.70;;
78614;SDS011;67937;52.488;20.952;2023-08-06T13:11:47;6.20;;;5.60;;
78614;SDS011;67937;52.488;20.952;2023-08-06T13:14:17;6.70;;;6.10;;
78614;SDS011;67937;52.488;20.952;2023-08-06T13:16:47;6.20;;;5.60;;
78614;SDS011;67937;52.488;20.952;2023-08-06T13:19:15;6.20;;;5.70;;
78614;SDS011;67937;52.488;20.952;2023-08-06T13:24:18;5.70;;;5.20;;
78614;SDS011;67937;52.488;20.952;2023-08-06T13:26:48;6.90;;;5.70;;
78614;SDS011;67937;52.488;20.952;2023-08-06T13:29:24;5.90;;;5.10;;
78614;SDS011;67937;52.488;20.952;2023-08-06T13:31:57;5.40;;;5.00;;
78614;SDS011;67937;52.488;20.952;2023-08-06T13:34:27;7.80;;;5.50;;
78614;SDS011;67937;52.488;20.952;2023-08-06T13:36:57;7.50;;;6.20;;
78614;SDS011;67937;52.488;20.952;2023-08-06T13:39:27;7.50;;;6.30;;
78614;SDS011;67937;52.488;20.952;2023-08-06T13:41:56;6.70;;;6.10;;
78614;SDS011;67937;52.488;20.952;2023-08-06T13:44:26;11.10;;;7.30;;
78614;SDS011;67937;52.488;20.952;2023-08-06T13:46:57;12.70;;;7.40;;
78614;SDS011;67937;52.488;20.952;2023-08-06T13:49:27;8.00;;;7.30;;
78614;SDS011;67937;52.488;20.952;2023-08-06T13:51:58;8.40;;;7.60;;
78614;SDS011;67937;52.488;20.952;2023-08-06T13:54:27;11.00;;;8.30;;
78614;SDS011;67937;52.488;20.952;2023-08-06T13:56:55;8.70;;;7.90;;
78614;SDS011;67937;52.488;20.952;2023-08-06T13:59:23;9.80;;;8.90;;
78614;SDS011;67937;52.488;20.952;2023-08-06T14:01:52;8.90;;;7.50;;
78614;SDS011;67937;52.488;20.952;2023-08-06T14:04:23;8.40;;;7.10;;
78614;SDS011;67937;52.488;20.952;2023-08-06T14:06:51;7.70;;;7.00;;
78614;SDS011;67937;52.488;20.952;2023-08-06T14:09:20;7.70;;;7.00;;
78614;SDS011;67937;52.488;20.952;2023-08-06T14:11:50;7.20;;;6.60;;
78614;SDS011;67937;52.488;20.952;2023-08-06T14:14:19;8.10;;;6.70;;
78614;SDS011;67937;52.488;20.952;2023-08-06T14:16:56;5.90;;;5.40;;
78614;SDS011;67937;52.488;20.952;2023-08-06T14:20:13;6.20;;;5.60;;
78614;SDS011;67937;52.488;20.952;2023-08-06T14:22:54;5.20;;;4.80;;
78614;SDS011;67937;52.488;20.952;2023-08-06T14:25:23;5.70;;;4.60;;
78614;SDS011;67937;52.488;20.952;2023-08-06T14:28:06;7.40;;;4.90;;
78614;SDS011;67937;52.488;20.952;2023-08-06T14:30:44;5.30;;;4.80;;
78614;SDS011;67937;52.488;20.952;2023-08-06T14:33:16;5.80;;;5.20;;
78614;SDS011;67937;52.488;20.952;2023-08-06T14:43:24;5.90;;;5.40;;
78614;SDS011;67937;52.488;20.952;2023-08-06T14:46:36;5.70;;;5.20;;
78614;SDS011;67937;52.488;20.952;2023-08-06T14:53:01;5.60;;;5.20;;
78614;SDS011;67937;52.488;20.952;2023-08-06T15:02:38;5.30;;;4.80;;
78614;SDS011;67937;52.488;20.952;2023-08-06T15:06:28;5.10;;;4.70;;
78614;SDS011;67937;52.488;20.952;2023-08-06T15:08:56;5.10;;;4.60;;
78614;SDS011;67937;52.488;20.952;2023-08-06T15:11:28;5.10;;;4.70;;
78614;SDS011;67937;52.488;20.952;2023-08-06T15:13:58;5.40;;;4.40;;
78614;SDS011;67937;52.488;20.952;2023-08-06T15:16:41;4.20;;;3.50;;
78614;SDS011;67937;52.488;20.952;2023-08-06T15:19:18;3.40;;;3.20;;
78614;SDS011;67937;52.488;20.952;2023-08-06T15:22:11;3.30;;;3.10;;
78614;SDS011;67937;52.488;20.952;2023-08-06T15:24:43;3.40;;;3.20;;
78614;SDS011;67937;52.488;20.952;2023-08-06T15:27:44;4.90;;;3.40;;
78614;SDS011;67937;52.488;20.952;2023-08-06T15:30:16;4.20;;;3.90;;
78614;SDS011;67937;52.488;20.952;2023-08-06T15:32:44;3.90;;;3.50;;
78614;SDS011;67937;52.488;20.952;2023-08-06T15:35:13;3.60;;;3.30;;